Time;durP1;ratioP1;P1;durP2;ratioP2;P2;SDS_P1;SDS_P2;PMS_P1;PMS_P2;Temp;Humidity;BMP_temperature;BMP_pressure;BME280_temperature;BME280_humidity;BME280_pressure;Samples;Min_cycle;Max_cycle;Signal;HPM_P1;HPM_P2
2022/08/09 00:04:00;;;;;;;;;;;;;;;;;;10460273;28;19925;-61
2022/08/09 00:09:11;;;;;;;;;;;;;;;;;;10459677;28;20376;-61
2022/08/09 00:14:13;;;;;;;;;;;;;;;;;;10459637;28;20291;-60
2022/08/09 00:19:18;;;;;;;;;;;;;;;;;;10459590;28;19925;-61
2022/08/09 00:24:20;;;;;;;;;;;;;;;;;;10457633;28;20435;-60
2022/08/09 00:29:22;;;;;;;;;;;;;;;;;;10459013;28;19938;-60
2022/08/09 00:34:40;;;;;;;;;;;;;;;;;;10459181;28;19970;-61
2022/08/09 00:39:47;;;;;;;;;;;;;;;;;;10458270;28;19925;-60
2022/08/09 00:45:09;;;;;;;;;;;;;;;;;;10458077;28;20360;-60
2022/08/09 00:50:16;;;;;;;;;;;;;;;;;;10457720;28;20339;-60
2022/08/09 00:55:18;;;;;;;;;;;;;;;;;;10457751;28;20295;-60
2022/08/09 01:00:40;;;;;;;;;;;;;;;;;;10443456;28;19925;-60
2022/08/09 01:05:42;;;;;;;;;;;;;;;;;;10458073;28;19928;-60
2022/08/09 01:10:52;;;;;;;;;;;;;;;;;;10457851;28;20019;-60
2022/08/09 01:15:54;;;;;;;;;;;;;;;;;;10458046;28;19932;-60
2022/08/09 01:20:56;;;;;;;;;;;;;;;;;;10457560;28;19925;-60
2022/08/09 01:25:58;;;;;;;;;;;;;;;;;;10457563;28;19931;-60
2022/08/09 01:31:00;;;;;;;;;;;;;;;;;;10457407;28;19925;-61
2022/08/09 01:36:03;;;;;;;;;;;;;;;;;;10457443;28;19929;-60
2022/08/09 01:41:05;;;;;;;;;;;;;;;;;;10457038;28;19925;-60
2022/08/09 01:46:07;;;;;;;;;;;;;;;;;;10456729;28;19963;-59
2022/08/09 01:51:09;;;;;;;;;;;;;;;;;;10456909;28;19932;-60
2022/08/09 01:56:11;;;;;;;;;;;;;;;;;;10457095;28;19925;-61
2022/08/09 02:01:13;;;;;;;;;;;;;;;;;;10456238;28;19928;-61
2022/08/09 02:07:07;;;;;;;;;;;;;;;;;;10445882;28;19929;-61
2022/08/09 02:11:43;;;;;;;;;;;;;;;;;;10464442;28;19935;-59
2022/08/09 02:16:45;;;;;;;;;;;;;;;;;;10463847;28;20283;-59
2022/08/09 02:22:01;;;;;;;;;;;;;;;;;;10463429;28;19925;-59
2022/08/09 02:27:03;;;;;;;;;;;;;;;;;;10463830;28;20288;-59
2022/08/09 02:32:05;;;;;;;;;;;;;;;;;;10446556;28;19925;-59
2022/08/09 02:37:08;;;;;;;;;;;;;;;;;;10463519;28;19932;-59
2022/08/09 02:42:15;;;;;;;;;;;;;;;;;;10462722;28;19983;-59
2022/08/09 02:47:17;;;;;;;;;;;;;;;;;;10462868;28;19925;-59
2022/08/09 02:52:19;;;;;;;;;;;;;;;;;;10462593;28;20303;-59
2022/08/09 02:57:21;;;;;;;;;;;;;;;;;;10463325;28;19924;-59
2022/08/09 03:02:24;;;;;;;;;;;;;;;;;;10462708;28;19928;-61
2022/08/09 03:07:27;;;;;;;;;;;;;;;;;;10463013;28;19963;-60
2022/08/09 03:12:29;;;;;;;;;;;;;;;;;;10462758;28;19925;-59
2022/08/09 03:17:31;;;;;;;;;;;;;;;;;;10461042;28;19932;-59
2022/08/09 03:22:33;;;;;;;;;;;;;;;;;;10461983;28;19935;-59
2022/08/09 03:27:43;;;;;;;;;;;;;;;;;;10461448;28;20322;-61
2022/08/09 03:32:46;;;;;;;;;;;;;;;;;;10461881;28;19925;-59
2022/08/09 03:37:48;;;;;;;;;;;;;;;;;;10460953;28;19924;-59
2022/08/09 03:42:57;;;;;;;;;;;;;;;;;;10460462;28;19925;-59
2022/08/09 03:47:59;;;;;;;;;;;;;;;;;;10460471;28;19932;-59
2022/08/09 03:53:01;;;;;;;;;;;;;;;;;;10460718;28;19925;-59
2022/08/09 03:58:04;;;;;;;;;;;;;;;;;;10460293;28;20291;-61
2022/08/09 04:03:15;;;;;;;;;;;;;;;;;;10460321;28;19925;-60
2022/08/09 04:08:25;;;;;;;;;;;;;;;;;;10460336;28;19925;-60
2022/08/09 04:13:30;;;;;;;;;;;;;;;;;;10459438;28;19929;-59
2022/08/09 04:18:52;;;;;;;;;;;;;;;;;;10459409;28;19925;-59
2022/08/09 04:23:54;;;;;;;;;;;;;;;;;;10459970;28;19935;-59
2022/08/09 04:28:58;;;;;;;;;;;;;;;;;;10459462;28;19986;-59
2022/08/09 04:34:04;;;;;;;;;;;;;;;;;;10459294;28;19929;-59
2022/08/09 04:39:09;;;;;;;;;;;;;;;;;;10459287;28;19932;-59
2022/08/09 04:44:11;;;;;;;;;;;;;;;;;;10457903;28;19987;-59
2022/08/09 04:49:15;;;;;;;;;;;;;;;;;;10458901;28;19932;-59
2022/08/09 04:54:18;;;;;;;;;;;;;;;;;;10458526;28;19925;-61
2022/08/09 04:59:21;;;;;;;;;;;;;;;;;;10457658;28;19932;-60
2022/08/09 05:04:23;;;;;;;;;;;;;;;;;;10458252;28;19929;-59
2022/08/09 05:09:32;;;;;;;;;;;;;;;;;;10458239;28;20007;-59
2022/08/09 05:14:49;;;;;;;;;;;;;;;;;;10457791;28;19979;-59
2022/08/09 05:19:52;;;;;;;;;;;;;;;;;;10457293;28;20295;-59
2022/08/09 05:24:58;;;;;;;;;;;;;;;;;;10457692;28;19925;-60
2022/08/09 05:30:02;;;;;;;;;;;;;;;;;;10456725;28;20020;-59
2022/08/09 05:35:04;;;;;;;;;;;;;;;;;;10457149;28;20295;-59
2022/08/09 05:40:06;;;;;;;;;;;;;;;;;;10456925;28;19931;-59
2022/08/09 05:45:09;;;;;;;;;;;;;;;;;;10456598;28;20000;-59
2022/08/09 05:50:11;;;;;;;;;;;;;;;;;;10456797;28;19931;-59
2022/08/09 05:55:32;;;;;;;;;;;;;;;;;;10456739;28;19925;-59
2022/08/09 06:00:34;;;;;;;;;;;;;;;;;;10425861;22;19933;-59
2022/08/09 06:05:36;;;;;;;;;;;;;;;;;;10373783;28;19948;-59
2022/08/09 06:10:55;;;;;;;;;;;;;;;;;;10374290;28;19979;-59
2022/08/09 06:15:59;;;;;;;;;;;;;;;;;;10374445;28;19976;-59
2022/08/09 06:21:01;;;;;;;;;;;;;;;;;;10374266;28;19932;-59
2022/08/09 06:26:03;;;;;;;;;;;;;;;;;;10374470;28;19929;-59
2022/08/09 06:31:05;;;;;;;;;;;;;;;;;;10373469;28;19929;-59
2022/08/09 06:36:07;;;;;;;;;;;;;;;;;;10373976;28;19926;-59
2022/08/09 06:41:09;;;;;;;;;;;;;;;;;;10373921;28;19925;-59
2022/08/09 06:46:19;;;;;;;;;;;;;;;;;;10374081;28;19929;-59
2022/08/09 06:51:41;;;;;;;;;;;;;;;;;;10378206;28;19926;-59
2022/08/09 06:56:44;;;;;;;;;;;;;;;;;;10381036;28;19925;-59
2022/08/09 07:01:47;;;;;;;;;;;;;;;;;;10379931;28;20452;-59
2022/08/09 07:06:58;;;;;;;;;;;;;;;;;;10380837;28;19932;-60
2022/08/09 07:12:01;;;;;;;;;;;;;;;;;;10379991;28;20368;-60
2022/08/09 07:17:04;;;;;;;;;;;;;;;;;;10380352;28;19926;-61
2022/08/09 07:22:06;;;;;;;;;;;;;;;;;;10379064;28;20303;-60
2022/08/09 07:27:08;;;;;;;;;;;;;;;;;;10379686;28;19933;-60
2022/08/09 07:32:24;;;;;;;;;;;;;;;;;;10379896;28;19932;-61
2022/08/09 07:37:34;;;;;;;;;;;;;;;;;;10378768;28;20331;-61
2022/08/09 07:42:45;;;;;;;;;;;;;;;;;;10379209;28;19979;-61
2022/08/09 07:47:47;;;;;;;;;;;;;;;;;;10378598;28;20395;-61
2022/08/09 07:53:01;;;;;;;;;;;;;;;;;;10378260;28;20396;-61
2022/08/09 07:58:05;;;;;;;;;;;;;;;;;;10378264;28;20368;-61
2022/08/09 08:03:14;;;;;;;;;;;;;;;;;;10377470;28;20381;-61
2022/08/09 08:08:16;;;;;;;;;;;;;;;;;;10378479;28;19929;-61
2022/08/09 08:13:38;;;;;;;;;;;;;;;;;;10376932;28;19952;-61
2022/08/09 08:18:46;;;;;;;;;;;;;;;;;;10377441;28;20359;-61
2022/08/09 08:23:48;;;;;;;;;;;;;;;;;;10377815;28;19926;-61
2022/08/09 08:28:56;;;;;;;;;;;;;;;;;;10377747;28;19934;-61
2022/08/09 08:33:58;;;;;;;;;;;;;;;;;;10377514;28;19925;-61
2022/08/09 08:39:00;;;;;;;;;;;;;;;;;;10377386;28;19932;-61
2022/08/09 08:44:03;;;;;;;;;;;;;;;;;;10376495;28;19925;-61
2022/08/09 08:49:05;;;;;;;;;;;;;;;;;;10376385;28;19936;-61
2022/08/09 08:54:08;;;;;;;;;;;;;;;;;;10376776;28;19925;-61
2022/08/09 08:59:11;;;;;;;;;;;;;;;;;;10375800;28;20333;-61
2022/08/09 09:04:21;;;;;;;;;;;;;;;;;;10376386;28;19952;-61
2022/08/09 09:09:28;;;;;;;;;;;;;;;;;;10375758;28;19925;-61
2022/08/09 09:14:50;;;;;;;;;;;;;;;;;;10375669;28;19926;-61
2022/08/09 09:19:53;;;;;;;;;;;;;;;;;;10375247;28;19933;-61
2022/08/09 09:24:55;;;;;;;;;;;;;;;;;;10375110;28;19932;-61
2022/08/09 09:30:17;;;;;;;;;;;;;;;;;;10375600;28;19925;-61
2022/08/09 09:35:39;;;;;;;;;;;;;;;;;;10375102;28;19932;-62
2022/08/09 09:40:44;;;;;;;;;;;;;;;;;;10374961;28;19926;-61
2022/08/09 09:45:47;;;;;;;;;;;;;;;;;;10375225;28;19967;-61
2022/08/09 09:51:09;;;;;;;;;;;;;;;;;;10374422;28;19925;-61
2022/08/09 09:56:12;;;;;;;;;;;;;;;;;;10375022;28;20012;-61
2022/08/09 10:01:21;;;;;;;;;;;;;;;;;;10374800;28;20021;-61
2022/08/09 10:06:40;;;;;;;;;;;;;;;;;;10374234;28;20351;-61
2022/08/09 10:11:43;;;;;;;;;;;;;;;;;;10374232;28;20381;-61
2022/08/09 10:17:06;;;;;;;;;;;;;;;;;;10374892;28;19933;-61
2022/08/09 10:22:28;;;;;;;;;;;;;;;;;;10374590;28;19936;-62
2022/08/09 10:27:40;;;;;;;;;;;;;;;;;;10381462;28;19929;-62
2022/08/09 10:32:57;;;;;;;;;;;;;;;;;;10382257;28;19926;-62
2022/08/09 10:38:02;;;;;;;;;;;;;;;;;;10381449;28;19933;-62
2022/08/09 10:43:04;;;;;;;;;;;;;;;;;;10381121;28;20391;-62
2022/08/09 10:48:07;;;;;;;;;;;;;;;;;;10381791;28;19936;-62
2022/08/09 10:53:27;;;;;;;;;;;;;;;;;;10380840;28;19926;-62
2022/08/09 10:58:29;;;;;;;;;;;;;;;;;;10381221;28;19926;-63
2022/08/09 11:03:31;;;;;;;;;;;;;;;;;;10380340;28;19933;-62
2022/08/09 11:08:51;;;;;;;;;;;;;;;;;;10380234;28;19927;-63
2022/08/09 11:13:55;;;;;;;;;;;;;;;;;;10380422;28;19929;-66
2022/08/09 11:18:57;;;;;;;;;;;;;;;;;;10379928;28;19933;-66
2022/08/09 11:23:59;;;;;;;;;;;;;;;;;;10380199;28;19925;-66
2022/08/09 11:29:01;;;;;;;;;;;;;;;;;;10378502;28;19925;-66
2022/08/09 11:34:03;;;;;;;;;;;;;;;;;;10379953;28;19940;-67
2022/08/09 11:39:05;;;;;;;;;;;;;;;;;;10379488;28;19926;-67
2022/08/09 11:44:07;;;;;;;;;;;;;;;;;;10379378;28;19929;-67
2022/08/09 11:49:09;;;;;;;;;;;;;;;;;;10379294;28;19925;-67
2022/08/09 11:54:12;;;;;;;;;;;;;;;;;;10378493;28;19926;-66
2022/08/09 11:59:14;;;;;;;;;;;;;;;;;;10377715;28;19925;-67
2022/08/09 12:04:17;;;;;;;;;;;;;;;;;;10377820;28;20376;-67
2022/08/09 12:09:21;;;;;;;;;;;;;;;;;;10377948;28;19957;-73
2022/08/09 12:14:23;;;;;;;;;;;;;;;;;;10377704;28;20392;-73
2022/08/09 12:19:29;;;;;;;;;;;;;;;;;;10378184;28;19926;-74
2022/08/09 12:24:32;;;;;;;;;;;;;;;;;;10377011;28;20289;-73
2022/08/09 12:29:34;;;;;;;;;;;;;;;;;;10376734;28;19932;-73
2022/08/09 12:34:45;;;;;;;;;;;;;;;;;;10366087;28;20012;-73
2022/08/09 12:39:47;;;;;;;;;;;;;;;;;;10376497;28;20398;-73
2022/08/09 12:44:50;;;;;;;;;;;;;;;;;;10376727;28;19925;-73
2022/08/09 12:55:14;;;;;;;;;;;;;;;;;;10376165;28;20292;-72
2022/08/09 13:00:36;;;;;;;;;;;;;;;;;;10375807;28;20309;-73
2022/08/09 13:05:38;;;;;;;;;;;;;;;;;;10376359;28;19932;-72
2022/08/09 13:10:53;;;;;;;;;;;;;;;;;;10375686;28;19926;-72
2022/08/09 13:15:55;;;;;;;;;;;;;;;;;;10375439;28;20391;-72
2022/08/09 13:20:57;;;;;;;;;;;;;;;;;;10375880;28;19930;-72
2022/08/09 13:26:19;;;;;;;;;;;;;;;;;;10375137;28;19948;-72
2022/08/09 13:31:22;;;;;;;;;;;;;;;;;;10375691;28;19932;-72
2022/08/09 13:36:44;;;;;;;;;;;;;;;;;;10375679;28;19929;-72
2022/08/09 13:41:46;;;;;;;;;;;;;;;;;;10375352;28;19929;-72
2022/08/09 13:47:00;;;;;;;;;;;;;;;;;;10375377;28;19926;-72
2022/08/09 13:52:22;;;;;;;;;;;;;;;;;;10374739;28;19933;-73
2022/08/09 13:57:31;;;;;;;;;;;;;;;;;;10374899;28;19948;-72
2022/08/09 14:02:36;;;;;;;;;;;;;;;;;;10382586;28;19968;-73
2022/08/09 14:07:43;;;;;;;;;;;;;;;;;;10383286;28;19926;-73
2022/08/09 14:12:45;;;;;;;;;;;;;;;;;;10382910;28;19932;-72
2022/08/09 14:17:48;;;;;;;;;;;;;;;;;;10381605;28;19934;-71
2022/08/09 14:23:10;;;;;;;;;;;;;;;;;;10382508;28;19929;-72
2022/08/09 14:28:12;;;;;;;;;;;;;;;;;;10381779;28;20266;-71
2022/08/09 14:33:14;;;;;;;;;;;;;;;;;;10381825;28;19926;-71
2022/08/09 14:38:21;;;;;;;;;;;;;;;;;;10381321;28;19926;-71
2022/08/09 14:43:24;;;;;;;;;;;;;;;;;;10381834;28;19933;-72
2022/08/09 14:48:26;;;;;;;;;;;;;;;;;;10381405;28;19932;-71
2022/08/09 14:53:28;;;;;;;;;;;;;;;;;;10381479;28;19953;-72
2022/08/09 14:58:30;;;;;;;;;;;;;;;;;;10363329;28;19929;-72
2022/08/09 15:03:32;;;;;;;;;;;;;;;;;;10380435;28;19949;-72
2022/08/09 15:08:34;;;;;;;;;;;;;;;;;;10379981;28;20315;-71
2022/08/09 15:13:36;;;;;;;;;;;;;;;;;;10380019;28;19926;-72
2022/08/09 15:18:57;;;;;;;;;;;;;;;;;;10379292;28;20319;-72
2022/08/09 15:24:00;;;;;;;;;;;;;;;;;;10378731;28;20380;-71
2022/08/09 15:29:13;;;;;;;;;;;;;;;;;;10379880;28;19964;-71
2022/08/09 15:34:35;;;;;;;;;;;;;;;;;;10379059;28;19930;-71
2022/08/09 15:39:37;;;;;;;;;;;;;;;;;;10360292;28;19932;-71
2022/08/09 15:44:57;;;;;;;;;;;;;;;;;;10378919;28;20387;-71
2022/08/09 15:49:59;;;;;;;;;;;;;;;;;;10375363;28;19932;-71
2022/08/09 15:55:06;;;;;;;;;;;;;;;;;;10377235;28;20389;-70
2022/08/09 16:00:10;;;;;;;;;;;;;;;;;;10378554;28;19937;-71
2022/08/09 16:05:15;;;;;;;;;;;;;;;;;;10378631;28;19932;-71
2022/08/09 16:10:17;;;;;;;;;;;;;;;;;;10377950;28;19925;-71
2022/08/09 16:15:39;;;;;;;;;;;;;;;;;;10378285;28;19933;-72
2022/08/09 16:21:01;;;;;;;;;;;;;;;;;;10377788;28;19929;-72
2022/08/09 16:26:03;;;;;;;;;;;;;;;;;;10359983;28;19925;-72
2022/08/09 16:31:05;;;;;;;;;;;;;;;;;;10359731;28;19925;-72
2022/08/09 16:36:17;;;;;;;;;;;;;;;;;;10376882;28;19925;-72
2022/08/09 16:41:19;;;;;;;;;;;;;;;;;;10376724;28;19953;-72
2022/08/09 16:46:40;;;;;;;;;;;;;;;;;;10377084;28;19965;-72
2022/08/09 16:51:56;;;;;;;;;;;;;;;;;;10375821;28;19925;-71
2022/08/09 16:56:58;;;;;;;;;;;;;;;;;;10376156;28;19930;-71
2022/08/09 17:02:00;;;;;;;;;;;;;;;;;;10375758;28;19930;-71
2022/08/09 17:07:02;;;;;;;;;;;;;;;;;;10376039;28;19932;-71
2022/08/09 17:12:24;;;;;;;;;;;;;;;;;;10361688;28;19929;-71
2022/08/09 17:17:26;;;;;;;;;;;;;;;;;;10374538;28;20391;-71
2022/08/09 17:22:29;;;;;;;;;;;;;;;;;;10374828;28;20368;-71
2022/08/09 17:27:32;;;;;;;;;;;;;;;;;;10375100;28;19979;-71
2022/08/09 17:32:34;;;;;;;;;;;;;;;;;;10373391;28;20464;-71
2022/08/09 17:37:38;;;;;;;;;;;;;;;;;;10374008;28;19930;-71
2022/08/09 17:43:00;;;;;;;;;;;;;;;;;;10374222;28;20320;-71
2022/08/09 17:48:13;;;;;;;;;;;;;;;;;;10373847;28;21554;-71
2022/08/09 17:53:15;;;;;;;;;;;;;;;;;;10373043;28;19929;-71
2022/08/09 17:58:23;;;;;;;;;;;;;;;;;;10374556;28;20313;-71
2022/08/09 18:03:28;;;;;;;;;;;;;;;;;;10374264;28;19948;-71
2022/08/09 18:08:30;;;;;;;;;;;;;;;;;;10374762;28;19932;-72
2022/08/09 18:13:32;;;;;;;;;;;;;;;;;;10389012;22;19925;-65
2022/08/09 18:18:41;;;;;;;;;;;;;;;;;;10428780;28;19925;-65
2022/08/09 18:23:44;;;;;;;;;;;;;;;;;;10427477;28;19944;-65
2022/08/09 18:29:06;;;;;;;;;;;;;;;;;;10451617;28;19928;-65
2022/08/09 18:34:30;;;;;;;;;;;;;;;;;;10455876;28;19925;-65
2022/08/09 18:39:32;;;;;;;;;;;;;;;;;;10431123;28;19925;-65
2022/08/09 18:44:34;;;;;;;;;;;;;;;;;;10420472;28;19925;-65
2022/08/09 18:49:36;;;;;;;;;;;;;;;;;;10422677;28;19983;-65
2022/08/09 18:54:44;;;;;;;;;;;;;;;;;;10421858;28;20015;-65
2022/08/09 18:59:51;;;;;;;;;;;;;;;;;;10424365;28;19926;-65
2022/08/09 19:04:58;;;;;;;;;;;;;;;;;;10422074;28;19932;-65
2022/08/09 19:10:16;;;;;;;;;;;;;;;;;;10421248;28;20392;-65
2022/08/09 19:15:18;;;;;;;;;;;;;;;;;;10421920;28;19948;-65
2022/08/09 19:20:21;;;;;;;;;;;;;;;;;;10422499;28;19932;-65
2022/08/09 19:25:23;;;;;;;;;;;;;;;;;;10421137;28;20014;-65
2022/08/09 19:30:43;;;;;;;;;;;;;;;;;;10421513;28;19929;-64
2022/08/09 19:35:45;;;;;;;;;;;;;;;;;;10420236;28;20277;-65
2022/08/09 19:41:00;;;;;;;;;;;;;;;;;;10421474;28;20360;-64
2022/08/09 19:46:02;;;;;;;;;;;;;;;;;;10436245;28;19925;-64
2022/08/09 19:51:05;;;;;;;;;;;;;;;;;;10460861;28;20371;-64
2022/08/09 19:56:07;;;;;;;;;;;;;;;;;;10459015;28;20348;-64
2022/08/09 20:01:09;;;;;;;;;;;;;;;;;;10458842;28;19967;-64
2022/08/09 20:06:11;;;;;;;;;;;;;;;;;;10459221;28;19932;-64
2022/08/09 20:11:25;;;;;;;;;;;;;;;;;;10456853;28;20433;-64
2022/08/09 20:16:27;;;;;;;;;;;;;;;;;;10429883;28;19931;-65
2022/08/09 20:21:36;;;;;;;;;;;;;;;;;;10452600;28;19932;-64
2022/08/09 20:26:41;;;;;;;;;;;;;;;;;;10460025;28;19929;-64
2022/08/09 20:31:43;;;;;;;;;;;;;;;;;;10457593;28;19925;-64
2022/08/09 20:37:05;;;;;;;;;;;;;;;;;;10459817;28;19924;-63
2022/08/09 20:42:07;;;;;;;;;;;;;;;;;;10457779;28;19932;-63
2022/08/09 20:47:10;;;;;;;;;;;;;;;;;;10459143;28;19924;-64
2022/08/09 20:52:32;;;;;;;;;;;;;;;;;;10456607;28;19929;-64
2022/08/09 20:57:34;;;;;;;;;;;;;;;;;;10417584;28;19932;-64
2022/08/09 21:02:56;;;;;;;;;;;;;;;;;;10376636;28;20098;-64
2022/08/09 21:08:00;;;;;;;;;;;;;;;;;;10384890;28;19928;-64
2022/08/09 21:13:02;;;;;;;;;;;;;;;;;;10458336;28;19924;-64
2022/08/09 21:18:04;;;;;;;;;;;;;;;;;;10455739;28;19963;-64
2022/08/09 21:23:23;;;;;;;;;;;;;;;;;;10437377;28;19925;-64
2022/08/09 21:28:37;;;;;;;;;;;;;;;;;;10415911;28;20450;-64
2022/08/09 21:33:39;;;;;;;;;;;;;;;;;;10415865;28;19929;-64
2022/08/09 21:38:41;;;;;;;;;;;;;;;;;;10436466;28;20292;-64
2022/08/09 21:43:43;;;;;;;;;;;;;;;;;;10457376;28;19932;-64
2022/08/09 21:48:58;;;;;;;;;;;;;;;;;;10457272;28;19925;-63
2022/08/09 21:54:00;;;;;;;;;;;;;;;;;;10451121;28;19925;-63
2022/08/09 21:59:02;;;;;;;;;;;;;;;;;;10417022;28;19932;-63
2022/08/09 22:04:04;;;;;;;;;;;;;;;;;;10433351;28;19931;-63
2022/08/09 22:09:07;;;;;;;;;;;;;;;;;;10456297;28;19947;-64
2022/08/09 22:14:12;;;;;;;;;;;;;;;;;;10456048;28;19924;-63
2022/08/09 22:19:14;;;;;;;;;;;;;;;;;;10438009;28;19979;-64
2022/08/09 22:24:24;;;;;;;;;;;;;;;;;;10423706;28;20005;-63
2022/08/09 22:29:27;;;;;;;;;;;;;;;;;;10423412;28;19929;-63
2022/08/09 22:34:47;;;;;;;;;;;;;;;;;;10462064;28;20370;-63
2022/08/09 22:40:00;;;;;;;;;;;;;;;;;;10462695;28;19932;-63
2022/08/09 22:45:02;;;;;;;;;;;;;;;;;;10464134;28;19978;-63
2022/08/09 22:50:24;;;;;;;;;;;;;;;;;;10463901;28;19925;-63
2022/08/09 22:55:26;;;;;;;;;;;;;;;;;;10437282;28;20262;-63
2022/08/09 23:00:34;;;;;;;;;;;;;;;;;;10441660;28;19925;-63
2022/08/09 23:05:36;;;;;;;;;;;;;;;;;;10422049;28;19936;-63
2022/08/09 23:10:38;;;;;;;;;;;;;;;;;;10422342;28;19947;-63
2022/08/09 23:15:44;;;;;;;;;;;;;;;;;;10420899;28;20365;-63
2022/08/09 23:21:04;;;;;;;;;;;;;;;;;;10449924;28;20375;-63
2022/08/09 23:26:07;;;;;;;;;;;;;;;;;;10461827;28;19928;-63
2022/08/09 23:31:10;;;;;;;;;;;;;;;;;;10450102;28;19932;-63
2022/08/09 23:36:12;;;;;;;;;;;;;;;;;;10420287;28;19925;-63
2022/08/09 23:41:14;;;;;;;;;;;;;;;;;;10433286;28;19932;-63
2022/08/09 23:46:30;;;;;;;;;;;;;;;;;;10461066;28;20291;-63
2022/08/09 23:51:32;;;;;;;;;;;;;;;;;;10444510;28;19925;-63
2022/08/09 23:56:34;;;;;;;;;;;;;;;;;;10420205;28;19932;-63
